sensor_id;sensor_type;location;lat;lon;timestamp;P1;durP1;ratioP1;P2;durP2;ratioP2
37288;SDS011;23174;49.462;11.000;2023-06-05T00:01:51;4.32;;;1.60;;
37288;SDS011;23174;49.462;11.000;2023-06-05T00:03:51;3.40;;;1.70;;
37288;SDS011;23174;49.462;11.000;2023-06-05T00:05:54;3.55;;;1.67;;
37288;SDS011;23174;49.462;11.000;2023-06-05T00:07:54;2.45;;;1.55;;
37288;SDS011;23174;49.462;11.000;2023-06-05T00:09:55;1.52;;;1.30;;
37288;SDS011;23174;49.462;11.000;2023-06-05T00:11:55;2.85;;;1.40;;
37288;SDS011;23174;49.462;11.000;2023-06-05T00:13:56;1.42;;;1.33;;
37288;SDS011;23174;49.462;11.000;2023-06-05T00:15:57;1.67;;;1.58;;
37288;SDS011;23174;49.462;11.000;2023-06-05T00:17:57;3.53;;;1.58;;
37288;SDS011;23174;49.462;11.000;2023-06-05T00:19:58;2.00;;;1.90;;
37288;SDS011;23174;49.462;11.000;2023-06-05T00:21:58;2.15;;;1.70;;
37288;SDS011;23174;49.462;11.000;2023-06-05T00:23:59;7.78;;;2.53;;
37288;SDS011;23174;49.462;11.000;2023-06-05T00:25:59;5.50;;;1.58;;
37288;SDS011;23174;49.462;11.000;2023-06-05T00:28:00;1.30;;;1.20;;
37288;SDS011;23174;49.462;11.000;2023-06-05T00:30:00;2.13;;;1.45;;
37288;SDS011;23174;49.462;11.000;2023-06-05T00:32:01;1.48;;;1.35;;
37288;SDS011;23174;49.462;11.000;2023-06-05T00:34:01;1.63;;;1.52;;
37288;SDS011;23174;49.462;11.000;2023-06-05T00:36:02;1.52;;;1.40;;
37288;SDS011;23174;49.462;11.000;2023-06-05T00:38:02;1.80;;;1.70;;
37288;SDS011;23174;49.462;11.000;2023-06-05T00:40:04;1.42;;;1.38;;
37288;SDS011;23174;49.462;11.000;2023-06-05T00:42:06;1.35;;;1.25;;
37288;SDS011;23174;49.462;11.000;2023-06-05T00:44:08;2.13;;;1.60;;
37288;SDS011;23174;49.462;11.000;2023-06-05T00:46:09;2.83;;;1.80;;
37288;SDS011;23174;49.462;11.000;2023-06-05T00:48:11;3.08;;;1.52;;
37288;SDS011;23174;49.462;11.000;2023-06-05T00:50:12;5.00;;;1.77;;
37288;SDS011;23174;49.462;11.000;2023-06-05T00:52:14;2.88;;;1.70;;
37288;SDS011;23174;49.462;11.000;2023-06-05T00:54:15;1.75;;;1.65;;
37288;SDS011;23174;49.462;11.000;2023-06-05T00:56:16;2.95;;;1.55;;
37288;SDS011;23174;49.462;11.000;2023-06-05T00:58:20;3.08;;;1.50;;
37288;SDS011;23174;49.462;11.000;2023-06-05T01:00:21;3.08;;;1.60;;
37288;SDS011;23174;49.462;11.000;2023-06-05T01:02:23;1.77;;;1.65;;
37288;SDS011;23174;49.462;11.000;2023-06-05T01:04:25;1.70;;;1.60;;
37288;SDS011;23174;49.462;11.000;2023-06-05T01:06:27;2.53;;;1.63;;
37288;SDS011;23174;49.462;11.000;2023-06-05T01:08:31;2.63;;;1.50;;
37288;SDS011;23174;49.462;11.000;2023-06-05T01:10:38;5.63;;;1.70;;
37288;SDS011;23174;49.462;11.000;2023-06-05T01:12:43;1.77;;;1.67;;
37288;SDS011;23174;49.462;11.000;2023-06-05T01:15:01;3.17;;;1.83;;
37288;SDS011;23174;49.462;11.000;2023-06-05T01:17:02;2.88;;;1.88;;
37288;SDS011;23174;49.462;11.000;2023-06-05T01:19:04;2.03;;;1.48;;
37288;SDS011;23174;49.462;11.000;2023-06-05T01:21:12;2.00;;;1.38;;
37288;SDS011;23174;49.462;11.000;2023-06-05T01:23:13;2.17;;;1.75;;
37288;SDS011;23174;49.462;11.000;2023-06-05T01:25:14;4.55;;;1.70;;
37288;SDS011;23174;49.462;11.000;2023-06-05T01:27:15;3.20;;;1.48;;
37288;SDS011;23174;49.462;11.000;2023-06-05T01:29:33;2.38;;;1.50;;
37288;SDS011;23174;49.462;11.000;2023-06-05T01:31:37;4.15;;;1.42;;
37288;SDS011;23174;49.462;11.000;2023-06-05T01:33:46;1.60;;;1.38;;
37288;SDS011;23174;49.462;11.000;2023-06-05T01:35:51;1.65;;;1.50;;
37288;SDS011;23174;49.462;11.000;2023-06-05T01:37:53;2.63;;;1.45;;
37288;SDS011;23174;49.462;11.000;2023-06-05T01:39:58;1.33;;;1.23;;
37288;SDS011;23174;49.462;11.000;2023-06-05T01:41:59;2.33;;;1.48;;
37288;SDS011;23174;49.462;11.000;2023-06-05T01:44:00;1.63;;;1.50;;
37288;SDS011;23174;49.462;11.000;2023-06-05T01:46:01;1.50;;;1.40;;
37288;SDS011;23174;49.462;11.000;2023-06-05T01:48:02;1.70;;;1.60;;
37288;SDS011;23174;49.462;11.000;2023-06-05T01:50:04;3.05;;;1.67;;
37288;SDS011;23174;49.462;11.000;2023-06-05T01:52:06;1.88;;;1.75;;
37288;SDS011;23174;49.462;11.000;2023-06-05T01:54:07;1.92;;;1.50;;
37288;SDS011;23174;49.462;11.000;2023-06-05T01:56:08;4.65;;;2.33;;
37288;SDS011;23174;49.462;11.000;2023-06-05T01:58:09;1.75;;;1.65;;
37288;SDS011;23174;49.462;11.000;2023-06-05T02:00:09;4.90;;;1.80;;
37288;SDS011;23174;49.462;11.000;2023-06-05T02:02:13;2.13;;;1.50;;
37288;SDS011;23174;49.462;11.000;2023-06-05T02:04:14;6.07;;;1.50;;
37288;SDS011;23174;49.462;11.000;2023-06-05T02:06:16;1.60;;;1.50;;
37288;SDS011;23174;49.462;11.000;2023-06-05T02:08:17;2.20;;;1.75;;
37288;SDS011;23174;49.462;11.000;2023-06-05T02:10:22;7.50;;;1.70;;
37288;SDS011;23174;49.462;11.000;2023-06-05T02:12:23;3.10;;;1.88;;
37288;SDS011;23174;49.462;11.000;2023-06-05T02:14:26;4.45;;;1.42;;
37288;SDS011;23174;49.462;11.000;2023-06-05T02:16:27;2.50;;;1.63;;
37288;SDS011;23174;49.462;11.000;2023-06-05T02:18:28;2.05;;;1.73;;
37288;SDS011;23174;49.462;11.000;2023-06-05T02:20:29;2.05;;;1.80;;
37288;SDS011;23174;49.462;11.000;2023-06-05T02:22:30;3.78;;;1.88;;
37288;SDS011;23174;49.462;11.000;2023-06-05T02:24:31;2.55;;;1.77;;
37288;SDS011;23174;49.462;11.000;2023-06-05T02:26:31;3.90;;;1.90;;
37288;SDS011;23174;49.462;11.000;2023-06-05T02:28:32;2.45;;;2.10;;
37288;SDS011;23174;49.462;11.000;2023-06-05T02:30:32;2.25;;;1.88;;
37288;SDS011;23174;49.462;11.000;2023-06-05T02:32:33;2.17;;;1.90;;
37288;SDS011;23174;49.462;11.000;2023-06-05T02:34:34;1.73;;;1.63;;
37288;SDS011;23174;49.462;11.000;2023-06-05T02:36:34;3.28;;;1.88;;
37288;SDS011;23174;49.462;11.000;2023-06-05T02:38:35;1.98;;;1.77;;
37288;SDS011;23174;49.462;11.000;2023-06-05T02:40:35;3.08;;;1.58;;
37288;SDS011;23174;49.462;11.000;2023-06-05T02:42:36;3.47;;;1.80;;
37288;SDS011;23174;49.462;11.000;2023-06-05T02:44:37;2.13;;;1.60;;
37288;SDS011;23174;49.462;11.000;2023-06-05T02:46:37;3.15;;;1.90;;
37288;SDS011;23174;49.462;11.000;2023-06-05T02:48:38;2.10;;;1.85;;
37288;SDS011;23174;49.462;11.000;2023-06-05T02:50:38;2.55;;;1.80;;
37288;SDS011;23174;49.462;11.000;2023-06-05T02:52:39;1.90;;;1.73;;
37288;SDS011;23174;49.462;11.000;2023-06-05T02:54:40;3.15;;;2.10;;
37288;SDS011;23174;49.462;11.000;2023-06-05T02:56:40;3.63;;;2.00;;
37288;SDS011;23174;49.462;11.000;2023-06-05T02:58:44;2.33;;;2.13;;
37288;SDS011;23174;49.462;11.000;2023-06-05T03:00:45;3.17;;;2.13;;
37288;SDS011;23174;49.462;11.000;2023-06-05T03:02:46;2.40;;;1.95;;
37288;SDS011;23174;49.462;11.000;2023-06-05T03:04:49;4.82;;;1.70;;
37288;SDS011;23174;49.462;11.000;2023-06-05T03:06:53;3.22;;;1.73;;
37288;SDS011;23174;49.462;11.000;2023-06-05T03:08:56;3.83;;;2.10;;
37288;SDS011;23174;49.462;11.000;2023-06-05T03:10:57;2.28;;;1.77;;
37288;SDS011;23174;49.462;11.000;2023-06-05T03:12:58;7.10;;;1.73;;
37288;SDS011;23174;49.462;11.000;2023-06-05T03:14:58;6.15;;;1.83;;
37288;SDS011;23174;49.462;11.000;2023-06-05T03:17:00;2.00;;;1.75;;
37288;SDS011;23174;49.462;11.000;2023-06-05T03:19:01;2.25;;;1.73;;
37288;SDS011;23174;49.462;11.000;2023-06-05T03:21:01;2.95;;;1.95;;
37288;SDS011;23174;49.462;11.000;2023-06-05T03:23:02;4.40;;;2.10;;
37288;SDS011;23174;49.462;11.000;2023-06-05T03:25:02;1.75;;;1.65;;
37288;SDS011;23174;49.462;11.000;2023-06-05T03:27:03;2.42;;;1.60;;
37288;SDS011;23174;49.462;11.000;2023-06-05T03:29:07;1.83;;;1.70;;
37288;SDS011;23174;49.462;11.000;2023-06-05T03:31:08;2.25;;;1.80;;
37288;SDS011;23174;49.462;11.000;2023-06-05T03:33:10;4.55;;;1.65;;
37288;SDS011;23174;49.462;11.000;2023-06-05T03:35:14;2.00;;;1.60;;
37288;SDS011;23174;49.462;11.000;2023-06-05T03:37:14;2.10;;;1.90;;
37288;SDS011;23174;49.462;11.000;2023-06-05T03:39:15;5.95;;;1.98;;
37288;SDS011;23174;49.462;11.000;2023-06-05T03:41:15;2.38;;;1.90;;
37288;SDS011;23174;49.462;11.000;2023-06-05T03:43:16;4.70;;;2.10;;
37288;SDS011;23174;49.462;11.000;2023-06-05T03:45:16;2.33;;;2.13;;
37288;SDS011;23174;49.462;11.000;2023-06-05T03:47:18;2.20;;;1.95;;
37288;SDS011;23174;49.462;11.000;2023-06-05T03:49:21;3.85;;;2.40;;
37288;SDS011;23174;49.462;11.000;2023-06-05T03:51:22;4.88;;;2.50;;
37288;SDS011;23174;49.462;11.000;2023-06-05T03:53:23;3.25;;;2.50;;
37288;SDS011;23174;49.462;11.000;2023-06-05T03:55:23;4.35;;;2.38;;
37288;SDS011;23174;49.462;11.000;2023-06-05T03:57:24;5.20;;;2.15;;
37288;SDS011;23174;49.462;11.000;2023-06-05T03:59:24;2.42;;;2.22;;
37288;SDS011;23174;49.462;11.000;2023-06-05T04:01:27;5.75;;;2.22;;
37288;SDS011;23174;49.462;11.000;2023-06-05T04:03:28;2.50;;;0.65;;
37288;SDS011;23174;49.462;11.000;2023-06-05T04:05:28;0.28;;;0.28;;
37288;SDS011;23174;49.462;11.000;2023-06-05T04:07:29;0.22;;;0.22;;
37288;SDS011;23174;49.462;11.000;2023-06-05T04:09:30;0.17;;;0.10;;
37288;SDS011;23174;49.462;11.000;2023-06-05T04:11:31;0.20;;;0.20;;
37288;SDS011;23174;49.462;11.000;2023-06-05T04:13:33;0.45;;;0.45;;
37288;SDS011;23174;49.462;11.000;2023-06-05T04:15:33;0.50;;;0.25;;
37288;SDS011;23174;49.462;11.000;2023-06-05T04:17:34;0.22;;;0.22;;
37288;SDS011;23174;49.462;11.000;2023-06-05T04:19:37;0.20;;;0.20;;
37288;SDS011;23174;49.462;11.000;2023-06-05T04:21:37;1.10;;;0.30;;
37288;SDS011;23174;49.462;11.000;2023-06-05T04:23:38;0.13;;;0.13;;
37288;SDS011;23174;49.462;11.000;2023-06-05T04:25:39;0.10;;;0.10;;
37288;SDS011;23174;49.462;11.000;2023-06-05T04:27:46;0.15;;;0.15;;
37288;SDS011;23174;49.462;11.000;2023-06-05T04:29:49;0.10;;;0.10;;
37288;SDS011;23174;49.462;11.000;2023-06-05T04:31:50;2.20;;;0.40;;
37288;SDS011;23174;49.462;11.000;2023-06-05T04:33:50;1.90;;;0.85;;
37288;SDS011;23174;49.462;11.000;2023-06-05T04:35:51;0.63;;;0.63;;
37288;SDS011;23174;49.462;11.000;2023-06-05T04:37:53;0.45;;;0.30;;
37288;SDS011;23174;49.462;11.000;2023-06-05T04:39:53;0.47;;;0.47;;
37288;SDS011;23174;49.462;11.000;2023-06-05T04:41:54;0.15;;;0.15;;
37288;SDS011;23174;49.462;11.000;2023-06-05T04:43:55;0.10;;;0.10;;
37288;SDS011;23174;49.462;11.000;2023-06-05T04:45:57;0.20;;;0.20;;
37288;SDS011;23174;49.462;11.000;2023-06-05T04:48:00;0.30;;;0.30;;
37288;SDS011;23174;49.462;11.000;2023-06-05T04:50:01;0.68;;;0.55;;
37288;SDS011;23174;49.462;11.000;2023-06-05T04:52:03;0.10;;;0.10;;
37288;SDS011;23174;49.462;11.000;2023-06-05T04:54:05;0.00;;;0.00;;
37288;SDS011;23174;49.462;11.000;2023-06-05T04:56:05;0.10;;;0.10;;
37288;SDS011;23174;49.462;11.000;2023-06-05T04:58:06;0.52;;;0.32;;
37288;SDS011;23174;49.462;11.000;2023-06-05T05:00:06;0.52;;;0.52;;
37288;SDS011;23174;49.462;11.000;2023-06-05T05:02:07;1.70;;;0.43;;
37288;SDS011;23174;49.462;11.000;2023-06-05T05:04:08;0.10;;;0.10;;
37288;SDS011;23174;49.462;11.000;2023-06-05T05:06:09;0.20;;;0.20;;
37288;SDS011;23174;49.462;11.000;2023-06-05T05:08:09;0.40;;;0.40;;
37288;SDS011;23174;49.462;11.000;2023-06-05T05:10:10;0.57;;;0.35;;
37288;SDS011;23174;49.462;11.000;2023-06-05T05:12:11;0.25;;;0.22;;
37288;SDS011;23174;49.462;11.000;2023-06-05T05:14:11;0.17;;;0.17;;
37288;SDS011;23174;49.462;11.000;2023-06-05T05:16:12;0.15;;;0.15;;
37288;SDS011;23174;49.462;11.000;2023-06-05T05:18:13;0.10;;;0.00;;
37288;SDS011;23174;49.462;11.000;2023-06-05T05:20:13;0.20;;;0.20;;
37288;SDS011;23174;49.462;11.000;2023-06-05T05:22:14;0.17;;;0.10;;
37288;SDS011;23174;49.462;11.000;2023-06-05T05:24:15;0.63;;;0.60;;
37288;SDS011;23174;49.462;11.000;2023-06-05T05:26:15;0.70;;;0.45;;
37288;SDS011;23174;49.462;11.000;2023-06-05T05:28:16;0.10;;;0.10;;
37288;SDS011;23174;49.462;11.000;2023-06-05T05:30:16;0.05;;;0.05;;
37288;SDS011;23174;49.462;11.000;2023-06-05T05:32:17;0.10;;;0.10;;
37288;SDS011;23174;49.462;11.000;2023-06-05T05:34:17;0.17;;;0.17;;
37288;SDS011;23174;49.462;11.000;2023-06-05T05:36:18;0.00;;;0.00;;
37288;SDS011;23174;49.462;11.000;2023-06-05T05:38:18;0.40;;;0.40;;
37288;SDS011;23174;49.462;11.000;2023-06-05T05:40:19;0.10;;;0.10;;
37288;SDS011;23174;49.462;11.000;2023-06-05T05:42:19;0.13;;;0.13;;
37288;SDS011;23174;49.462;11.000;2023-06-05T05:44:20;0.20;;;0.10;;
37288;SDS011;23174;49.462;11.000;2023-06-05T05:46:20;0.52;;;0.20;;
37288;SDS011;23174;49.462;11.000;2023-06-05T05:48:21;0.25;;;0.25;;
37288;SDS011;23174;49.462;11.000;2023-06-05T05:50:22;0.30;;;0.30;;
37288;SDS011;23174;49.462;11.000;2023-06-05T05:52:23;0.57;;;0.40;;
37288;SDS011;23174;49.462;11.000;2023-06-05T05:54:23;2.63;;;0.65;;
37288;SDS011;23174;49.462;11.000;2023-06-05T05:56:27;0.20;;;0.20;;
37288;SDS011;23174;49.462;11.000;2023-06-05T05:58:27;0.10;;;0.10;;
37288;SDS011;23174;49.462;11.000;2023-06-05T06:00:28;0.10;;;0.10;;
37288;SDS011;23174;49.462;11.000;2023-06-05T06:02:29;0.20;;;0.20;;
37288;SDS011;23174;49.462;11.000;2023-06-05T06:04:29;0.08;;;0.08;;
37288;SDS011;23174;49.462;11.000;2023-06-05T06:06:39;1.67;;;0.45;;
37288;SDS011;23174;49.462;11.000;2023-06-05T06:08:44;0.10;;;0.10;;
37288;SDS011;23174;49.462;11.000;2023-06-05T06:10:45;0.22;;;0.22;;
37288;SDS011;23174;49.462;11.000;2023-06-05T06:12:46;0.32;;;0.32;;
37288;SDS011;23174;49.462;11.000;2023-06-05T06:14:46;0.25;;;0.25;;
37288;SDS011;23174;49.462;11.000;2023-06-05T06:16:48;0.30;;;0.30;;
37288;SDS011;23174;49.462;11.000;2023-06-05T06:18:50;0.63;;;0.63;;
37288;SDS011;23174;49.462;11.000;2023-06-05T06:20:51;0.35;;;0.35;;
37288;SDS011;23174;49.462;11.000;2023-06-05T06:22:52;0.25;;;0.25;;
37288;SDS011;23174;49.462;11.000;2023-06-05T06:24:52;0.15;;;0.15;;
37288;SDS011;23174;49.462;11.000;2023-06-05T06:26:53;0.35;;;0.35;;
37288;SDS011;23174;49.462;11.000;2023-06-05T06:28:55;1.70;;;0.85;;
37288;SDS011;23174;49.462;11.000;2023-06-05T06:30:57;0.03;;;0.03;;
37288;SDS011;23174;49.462;11.000;2023-06-05T06:32:58;0.57;;;0.57;;
37288;SDS011;23174;49.462;11.000;2023-06-05T06:34:58;0.95;;;0.52;;
37288;SDS011;23174;49.462;11.000;2023-06-05T06:36:59;0.30;;;0.30;;
37288;SDS011;23174;49.462;11.000;2023-06-05T06:39:00;1.40;;;0.57;;
37288;SDS011;23174;49.462;11.000;2023-06-05T06:41:01;0.08;;;0.08;;
37288;SDS011;23174;49.462;11.000;2023-06-05T06:43:01;0.40;;;0.40;;
37288;SDS011;23174;49.462;11.000;2023-06-05T06:45:02;0.10;;;0.10;;
37288;SDS011;23174;49.462;11.000;2023-06-05T06:47:04;10.40;;;0.52;;
37288;SDS011;23174;49.462;11.000;2023-06-05T06:49:05;0.20;;;0.20;;
37288;SDS011;23174;49.462;11.000;2023-06-05T06:51:06;0.10;;;0.10;;
37288;SDS011;23174;49.462;11.000;2023-06-05T06:53:06;0.98;;;0.32;;
37288;SDS011;23174;49.462;11.000;2023-06-05T06:55:07;0.00;;;0.00;;
37288;SDS011;23174;49.462;11.000;2023-06-05T06:57:08;0.98;;;0.95;;
37288;SDS011;23174;49.462;11.000;2023-06-05T06:59:11;1.75;;;0.40;;
37288;SDS011;23174;49.462;11.000;2023-06-05T07:01:13;0.68;;;0.60;;
37288;SDS011;23174;49.462;11.000;2023-06-05T07:03:15;1.13;;;0.40;;
37288;SDS011;23174;49.462;11.000;2023-06-05T07:05:16;0.20;;;0.20;;
37288;SDS011;23174;49.462;11.000;2023-06-05T07:07:17;2.63;;;0.77;;
37288;SDS011;23174;49.462;11.000;2023-06-05T07:09:18;0.10;;;0.10;;
37288;SDS011;23174;49.462;11.000;2023-06-05T07:11:18;0.20;;;0.20;;
37288;SDS011;23174;49.462;11.000;2023-06-05T07:13:19;0.30;;;0.30;;
37288;SDS011;23174;49.462;11.000;2023-06-05T07:15:19;0.10;;;0.10;;
37288;SDS011;23174;49.462;11.000;2023-06-05T07:17:20;0.28;;;0.28;;
37288;SDS011;23174;49.462;11.000;2023-06-05T07:19:21;1.00;;;0.60;;
37288;SDS011;23174;49.462;11.000;2023-06-05T07:21:21;0.20;;;0.20;;
37288;SDS011;23174;49.462;11.000;2023-06-05T07:23:22;0.35;;;0.35;;
37288;SDS011;23174;49.462;11.000;2023-06-05T07:25:23;0.38;;;0.38;;
37288;SDS011;23174;49.462;11.000;2023-06-05T07:27:24;0.63;;;0.63;;
37288;SDS011;23174;49.462;11.000;2023-06-05T07:29:25;0.20;;;0.20;;
37288;SDS011;23174;49.462;11.000;2023-06-05T07:31:26;0.03;;;0.03;;
37288;SDS011;23174;49.462;11.000;2023-06-05T07:33:28;0.20;;;0.13;;
37288;SDS011;23174;49.462;11.000;2023-06-05T07:35:29;1.95;;;0.57;;
37288;SDS011;23174;49.462;11.000;2023-06-05T07:37:29;3.70;;;1.30;;
37288;SDS011;23174;49.462;11.000;2023-06-05T07:39:30;0.50;;;0.45;;
37288;SDS011;23174;49.462;11.000;2023-06-05T07:41:30;0.30;;;0.30;;
37288;SDS011;23174;49.462;11.000;2023-06-05T07:43:31;1.00;;;0.85;;
37288;SDS011;23174;49.462;11.000;2023-06-05T07:45:31;0.57;;;0.40;;
37288;SDS011;23174;49.462;11.000;2023-06-05T07:47:32;0.55;;;0.55;;
37288;SDS011;23174;49.462;11.000;2023-06-05T07:49:32;0.45;;;0.45;;
37288;SDS011;23174;49.462;11.000;2023-06-05T07:51:33;0.85;;;0.85;;
37288;SDS011;23174;49.462;11.000;2023-06-05T07:53:35;0.60;;;0.60;;
37288;SDS011;23174;49.462;11.000;2023-06-05T07:55:36;0.57;;;0.57;;
37288;SDS011;23174;49.462;11.000;2023-06-05T07:57:36;1.08;;;0.95;;
37288;SDS011;23174;49.462;11.000;2023-06-05T07:59:37;1.83;;;1.10;;
37288;SDS011;23174;49.462;11.000;2023-06-05T08:01:38;0.65;;;0.65;;
37288;SDS011;23174;49.462;11.000;2023-06-05T08:03:38;0.57;;;0.57;;
37288;SDS011;23174;49.462;11.000;2023-06-05T08:05:39;0.75;;;0.75;;
37288;SDS011;23174;49.462;11.000;2023-06-05T08:07:42;9.63;;;1.83;;
37288;SDS011;23174;49.462;11.000;2023-06-05T08:09:43;1.55;;;1.10;;
37288;SDS011;23174;49.462;11.000;2023-06-05T08:11:43;1.25;;;1.15;;
37288;SDS011;23174;49.462;11.000;2023-06-05T08:13:44;0.77;;;0.75;;
37288;SDS011;23174;49.462;11.000;2023-06-05T08:15:45;0.75;;;0.73;;
37288;SDS011;23174;49.462;11.000;2023-06-05T08:17:45;3.47;;;1.33;;
37288;SDS011;23174;49.462;11.000;2023-06-05T08:19:46;0.63;;;0.60;;
37288;SDS011;23174;49.462;11.000;2023-06-05T08:21:46;0.55;;;0.47;;
37288;SDS011;23174;49.462;11.000;2023-06-05T08:23:50;0.98;;;0.98;;
37288;SDS011;23174;49.462;11.000;2023-06-05T08:25:50;0.50;;;0.47;;
37288;SDS011;23174;49.462;11.000;2023-06-05T08:27:51;0.60;;;0.60;;
37288;SDS011;23174;49.462;11.000;2023-06-05T08:29:52;0.75;;;0.55;;
37288;SDS011;23174;49.462;11.000;2023-06-05T08:31:53;0.45;;;0.45;;
37288;SDS011;23174;49.462;11.000;2023-06-05T08:33:53;1.60;;;0.85;;
37288;SDS011;23174;49.462;11.000;2023-06-05T08:35:54;6.10;;;2.60;;
37288;SDS011;23174;49.462;11.000;2023-06-05T08:37:55;3.13;;;2.78;;
37288;SDS011;23174;49.462;11.000;2023-06-05T08:39:55;16.15;;;3.53;;
37288;SDS011;23174;49.462;11.000;2023-06-05T08:42:00;6.07;;;3.13;;
37288;SDS011;23174;49.462;11.000;2023-06-05T08:44:02;9.70;;;3.00;;
37288;SDS011;23174;49.462;11.000;2023-06-05T08:46:04;3.50;;;2.85;;
37288;SDS011;23174;49.462;11.000;2023-06-05T08:48:06;3.05;;;2.60;;
37288;SDS011;23174;49.462;11.000;2023-06-05T08:50:11;3.70;;;3.00;;
37288;SDS011;23174;49.462;11.000;2023-06-05T08:52:12;7.82;;;2.85;;
37288;SDS011;23174;49.462;11.000;2023-06-05T08:54:14;8.02;;;2.90;;
37288;SDS011;23174;49.462;11.000;2023-06-05T08:56:16;7.80;;;3.22;;
37288;SDS011;23174;49.462;11.000;2023-06-05T08:58:17;9.55;;;3.42;;
37288;SDS011;23174;49.462;11.000;2023-06-05T09:00:18;3.30;;;2.97;;
37288;SDS011;23174;49.462;11.000;2023-06-05T09:02:19;3.92;;;3.10;;
37288;SDS011;23174;49.462;11.000;2023-06-05T09:04:19;4.88;;;3.10;;
37288;SDS011;23174;49.462;11.000;2023-06-05T09:06:20;3.78;;;3.00;;
37288;SDS011;23174;49.462;11.000;2023-06-05T09:08:28;3.75;;;2.92;;
37288;SDS011;23174;49.462;11.000;2023-06-05T09:10:32;3.28;;;2.72;;
37288;SDS011;23174;49.462;11.000;2023-06-05T09:12:53;8.98;;;3.40;;
37288;SDS011;23174;49.462;11.000;2023-06-05T09:14:55;6.70;;;3.58;;
37288;SDS011;23174;49.462;11.000;2023-06-05T09:16:55;3.55;;;3.13;;
37288;SDS011;23174;49.462;11.000;2023-06-05T09:18:56;3.50;;;3.20;;
37288;SDS011;23174;49.462;11.000;2023-06-05T09:20:57;4.38;;;3.15;;
37288;SDS011;23174;49.462;11.000;2023-06-05T09:23:21;3.20;;;2.90;;
37288;SDS011;23174;49.462;11.000;2023-06-05T09:25:44;4.38;;;3.25;;
37288;SDS011;23174;49.462;11.000;2023-06-05T09:28:06;4.05;;;3.15;;
37288;SDS011;23174;49.462;11.000;2023-06-05T09:30:07;5.10;;;3.60;;
37288;SDS011;23174;49.462;11.000;2023-06-05T09:32:09;4.28;;;3.40;;
37288;SDS011;23174;49.462;11.000;2023-06-05T09:34:23;5.03;;;3.60;;
37288;SDS011;23174;49.462;11.000;2023-06-05T09:36:25;10.73;;;3.38;;
37288;SDS011;23174;49.462;11.000;2023-06-05T09:38:26;5.05;;;3.95;;
37288;SDS011;23174;49.462;11.000;2023-06-05T09:40:36;5.82;;;3.80;;
37288;SDS011;23174;49.462;11.000;2023-06-05T09:42:37;3.90;;;3.10;;
37288;SDS011;23174;49.462;11.000;2023-06-05T09:44:38;3.97;;;3.58;;
37288;SDS011;23174;49.462;11.000;2023-06-05T09:46:49;9.88;;;3.78;;
37288;SDS011;23174;49.462;11.000;2023-06-05T09:48:57;5.95;;;3.78;;
37288;SDS011;23174;49.462;11.000;2023-06-05T09:51:07;7.38;;;3.97;;
37288;SDS011;23174;49.462;11.000;2023-06-05T09:53:15;5.70;;;3.70;;
37288;SDS011;23174;49.462;11.000;2023-06-05T09:55:16;4.85;;;3.97;;
37288;SDS011;23174;49.462;11.000;2023-06-05T09:57:17;5.45;;;3.97;;
37288;SDS011;23174;49.462;11.000;2023-06-05T09:59:21;5.95;;;3.75;;
37288;SDS011;23174;49.462;11.000;2023-06-05T10:01:22;4.45;;;3.85;;
37288;SDS011;23174;49.462;11.000;2023-06-05T10:03:24;6.88;;;3.53;;
37288;SDS011;23174;49.462;11.000;2023-06-05T10:05:27;4.82;;;4.00;;
37288;SDS011;23174;49.462;11.000;2023-06-05T10:07:29;7.32;;;3.75;;
37288;SDS011;23174;49.462;11.000;2023-06-05T10:09:31;5.72;;;3.95;;
37288;SDS011;23174;49.462;11.000;2023-06-05T10:11:35;10.70;;;4.00;;
37288;SDS011;23174;49.462;11.000;2023-06-05T10:13:36;3.90;;;3.60;;
37288;SDS011;23174;49.462;11.000;2023-06-05T10:15:36;3.70;;;3.40;;
37288;SDS011;23174;49.462;11.000;2023-06-05T10:17:40;6.82;;;3.50;;
37288;SDS011;23174;49.462;11.000;2023-06-05T10:19:44;4.05;;;3.55;;
37288;SDS011;23174;49.462;11.000;2023-06-05T10:21:46;5.32;;;3.65;;
37288;SDS011;23174;49.462;11.000;2023-06-05T10:23:48;5.55;;;3.60;;
37288;SDS011;23174;49.462;11.000;2023-06-05T10:25:58;10.63;;;3.92;;
37288;SDS011;23174;49.462;11.000;2023-06-05T10:30:35;7.07;;;3.50;;
37288;SDS011;23174;49.462;11.000;2023-06-05T10:35:44;4.10;;;3.80;;
37288;SDS011;23174;49.462;11.000;2023-06-05T10:38:17;6.40;;;3.60;;
37288;SDS011;23174;49.462;11.000;2023-06-05T10:40:20;4.60;;;3.42;;
37288;SDS011;23174;49.462;11.000;2023-06-05T10:42:22;4.38;;;3.85;;
37288;SDS011;23174;49.462;11.000;2023-06-05T10:44:37;5.22;;;3.72;;
37288;SDS011;23174;49.462;11.000;2023-06-05T10:46:39;4.15;;;3.30;;
37288;SDS011;23174;49.462;11.000;2023-06-05T10:53:49;5.80;;;3.67;;
37288;SDS011;23174;49.462;11.000;2023-06-05T10:55:50;6.70;;;3.27;;
37288;SDS011;23174;49.462;11.000;2023-06-05T10:58:07;5.38;;;3.50;;
37288;SDS011;23174;49.462;11.000;2023-06-05T11:00:09;4.47;;;3.95;;
37288;SDS011;23174;49.462;11.000;2023-06-05T11:04:15;4.20;;;3.25;;
37288;SDS011;23174;49.462;11.000;2023-06-05T11:06:17;4.07;;;3.20;;
37288;SDS011;23174;49.462;11.000;2023-06-05T11:08:17;5.22;;;3.63;;
37288;SDS011;23174;49.462;11.000;2023-06-05T11:10:19;7.45;;;3.42;;
37288;SDS011;23174;49.462;11.000;2023-06-05T11:12:20;3.38;;;3.10;;
37288;SDS011;23174;49.462;11.000;2023-06-05T11:14:21;3.20;;;2.90;;
37288;SDS011;23174;49.462;11.000;2023-06-05T11:16:25;6.05;;;2.90;;
37288;SDS011;23174;49.462;11.000;2023-06-05T11:22:45;4.53;;;3.33;;
37288;SDS011;23174;49.462;11.000;2023-06-05T11:25:23;6.28;;;2.72;;
37288;SDS011;23174;49.462;11.000;2023-06-05T11:29:42;2.80;;;2.60;;
37288;SDS011;23174;49.462;11.000;2023-06-05T11:31:43;6.47;;;2.85;;
37288;SDS011;23174;49.462;11.000;2023-06-05T11:33:44;3.75;;;2.70;;
37288;SDS011;23174;49.462;11.000;2023-06-05T11:35:46;8.75;;;3.28;;
37288;SDS011;23174;49.462;11.000;2023-06-05T11:37:48;2.72;;;2.53;;
37288;SDS011;23174;49.462;11.000;2023-06-05T11:39:49;3.28;;;2.90;;
37288;SDS011;23174;49.462;11.000;2023-06-05T11:41:49;5.00;;;2.97;;
37288;SDS011;23174;49.462;11.000;2023-06-05T11:43:51;2.78;;;2.58;;
37288;SDS011;23174;49.462;11.000;2023-06-05T11:45:55;2.88;;;2.63;;
37288;SDS011;23174;49.462;11.000;2023-06-05T11:48:03;6.68;;;3.30;;
37288;SDS011;23174;49.462;11.000;2023-06-05T11:50:08;3.28;;;2.97;;
37288;SDS011;23174;49.462;11.000;2023-06-05T11:52:16;3.60;;;3.15;;
37288;SDS011;23174;49.462;11.000;2023-06-05T11:54:25;3.55;;;3.25;;
37288;SDS011;23174;49.462;11.000;2023-06-05T11:56:27;4.70;;;2.90;;
37288;SDS011;23174;49.462;11.000;2023-06-05T11:58:28;5.43;;;2.78;;
37288;SDS011;23174;49.462;11.000;2023-06-05T12:00:29;3.30;;;3.00;;
37288;SDS011;23174;49.462;11.000;2023-06-05T12:02:30;3.20;;;2.95;;
37288;SDS011;23174;49.462;11.000;2023-06-05T12:04:31;4.53;;;2.70;;
37288;SDS011;23174;49.462;11.000;2023-06-05T12:06:32;6.18;;;2.80;;
37288;SDS011;23174;49.462;11.000;2023-06-05T12:08:34;4.32;;;2.97;;
37288;SDS011;23174;49.462;11.000;2023-06-05T12:10:35;4.35;;;3.20;;
37288;SDS011;23174;49.462;11.000;2023-06-05T12:12:57;7.72;;;3.05;;
37288;SDS011;23174;49.462;11.000;2023-06-05T12:14:57;4.00;;;2.67;;
37288;SDS011;23174;49.462;11.000;2023-06-05T12:16:57;2.67;;;2.40;;
37288;SDS011;23174;49.462;11.000;2023-06-05T12:18:58;5.03;;;2.55;;
37288;SDS011;23174;49.462;11.000;2023-06-05T12:21:00;2.25;;;2.15;;
37288;SDS011;23174;49.462;11.000;2023-06-05T12:23:00;3.70;;;2.47;;
37288;SDS011;23174;49.462;11.000;2023-06-05T12:25:17;4.55;;;2.65;;